EKVG

Vagar Airport

Vagar, Denmark
METAR EKVG 191950Z AUTO 26023KT 9999NDV BKN022/// 08/04 Q1007 RMK BKN023/// WIND 850FT 28027KT
Observed Flight Rules
Jun-19 @ 19:50 UTC (27 minutes ago)
Wind Clouds
260° at 23 knots
  • Broken at 2,200' AGL
Temperatures Readings
Current 8°C / 46°F
Dewpoint 4°C / 39°F
Humidity 76%
Altimeter 29.73" Hg
Pressure 1007 hPa
Elevation 85
METAR EKVG 191950Z AUTO 26023KT 9999NDV BKN022/// 08/04 Q1007 RMK BKN023/// WIND 850FT 28027KT
Observed Flight Rules
Jun-19 @ 19:50 UTC
(27 minutes ago)
Wind
260° at 23 knots
Clouds
  • Broken at 2,200' AGL
Temperature Dewpoint
8°C / 46°F 4°C / 39°F
Humidity Altimeter Pressure
76% 29.73" Hg 1007 hPa